sensor_id;sensor_type;location;lat;lon;timestamp;temperature;humidity
6520;DHT22;3293;51.690;5.982;2023-03-03T00:03:53;1.10;99.90
6520;DHT22;3293;51.690;5.982;2023-03-03T00:08:53;1.10;99.90
6520;DHT22;3293;51.690;5.982;2023-03-03T00:13:55;1.10;99.90
6520;DHT22;3293;51.690;5.982;2023-03-03T00:18:56;1.10;99.90
6520;DHT22;3293;51.690;5.982;2023-03-03T00:29:34;1.10;99.90
6520;DHT22;3293;51.690;5.982;2023-03-03T00:34:35;1.00;99.90
6520;DHT22;3293;51.690;5.982;2023-03-03T00:39:37;1.00;99.90
6520;DHT22;3293;51.690;5.982;2023-03-03T00:44:47;1.10;99.90
6520;DHT22;3293;51.690;5.982;2023-03-03T00:49:48;1.10;99.90
6520;DHT22;3293;51.690;5.982;2023-03-03T00:54:49;1.10;99.90
6520;DHT22;3293;51.690;5.982;2023-03-03T00:59:49;1.00;99.90
6520;DHT22;3293;51.690;5.982;2023-03-03T01:04:51;1.10;99.90
6520;DHT22;3293;51.690;5.982;2023-03-03T01:09:52;1.00;99.90
6520;DHT22;3293;51.690;5.982;2023-03-03T01:14:52;1.10;99.90
6520;DHT22;3293;51.690;5.982;2023-03-03T01:19:54;1.20;99.90
6520;DHT22;3293;51.690;5.982;2023-03-03T01:24:54;1.20;99.90
6520;DHT22;3293;51.690;5.982;2023-03-03T01:29:55;1.10;99.90
6520;DHT22;3293;51.690;5.982;2023-03-03T01:34:55;1.10;99.90
6520;DHT22;3293;51.690;5.982;2023-03-03T01:39:56;1.00;99.90
6520;DHT22;3293;51.690;5.982;2023-03-03T01:45:16;0.90;99.90
6520;DHT22;3293;51.690;5.982;2023-03-03T01:55:33;0.90;99.90
6520;DHT22;3293;51.690;5.982;2023-03-03T02:00:36;0.90;99.90
6520;DHT22;3293;51.690;5.982;2023-03-03T02:05:38;0.90;99.90
6520;DHT22;3293;51.690;5.982;2023-03-03T02:10:39;0.90;99.90
6520;DHT22;3293;51.690;5.982;2023-03-03T02:15:39;1.00;99.90
6520;DHT22;3293;51.690;5.982;2023-03-03T02:30:56;1.00;99.90
6520;DHT22;3293;51.690;5.982;2023-03-03T02:35:56;0.90;99.90
6520;DHT22;3293;51.690;5.982;2023-03-03T02:46:08;1.00;99.90
6520;DHT22;3293;51.690;5.982;2023-03-03T02:51:08;1.10;99.90
6520;DHT22;3293;51.690;5.982;2023-03-03T02:56:08;1.10;99.90
6520;DHT22;3293;51.690;5.982;2023-03-03T03:01:09;1.20;99.90
6520;DHT22;3293;51.690;5.982;2023-03-03T03:06:09;1.20;99.90
6520;DHT22;3293;51.690;5.982;2023-03-03T03:11:09;1.20;99.90
6520;DHT22;3293;51.690;5.982;2023-03-03T03:16:10;1.20;99.90
6520;DHT22;3293;51.690;5.982;2023-03-03T03:21:11;1.20;99.90
6520;DHT22;3293;51.690;5.982;2023-03-03T03:26:11;1.20;99.90
6520;DHT22;3293;51.690;5.982;2023-03-03T03:31:12;1.20;99.90
6520;DHT22;3293;51.690;5.982;2023-03-03T03:36:12;1.30;99.90
6520;DHT22;3293;51.690;5.982;2023-03-03T03:41:12;1.30;99.90
6520;DHT22;3293;51.690;5.982;2023-03-03T03:46:13;1.30;99.90
6520;DHT22;3293;51.690;5.982;2023-03-03T03:51:13;1.30;99.90
6520;DHT22;3293;51.690;5.982;2023-03-03T03:56:13;1.30;99.90
6520;DHT22;3293;51.690;5.982;2023-03-03T04:01:13;1.30;99.90
6520;DHT22;3293;51.690;5.982;2023-03-03T04:06:13;1.20;99.90
6520;DHT22;3293;51.690;5.982;2023-03-03T04:11:13;1.30;99.90
6520;DHT22;3293;51.690;5.982;2023-03-03T04:16:13;1.20;99.90
6520;DHT22;3293;51.690;5.982;2023-03-03T04:21:14;1.20;99.90
6520;DHT22;3293;51.690;5.982;2023-03-03T04:26:14;1.20;99.90
6520;DHT22;3293;51.690;5.982;2023-03-03T04:31:14;1.30;99.90
6520;DHT22;3293;51.690;5.982;2023-03-03T04:36:14;1.30;99.90
6520;DHT22;3293;51.690;5.982;2023-03-03T04:41:14;1.30;99.90
6520;DHT22;3293;51.690;5.982;2023-03-03T04:46:14;1.50;99.90
6520;DHT22;3293;51.690;5.982;2023-03-03T04:51:14;1.50;99.90
6520;DHT22;3293;51.690;5.982;2023-03-03T04:56:15;1.50;99.90
6520;DHT22;3293;51.690;5.982;2023-03-03T05:01:15;1.50;99.90
6520;DHT22;3293;51.690;5.982;2023-03-03T05:06:15;1.50;99.90
6520;DHT22;3293;51.690;5.982;2023-03-03T05:11:17;1.60;99.90
6520;DHT22;3293;51.690;5.982;2023-03-03T05:16:17;1.60;99.90
6520;DHT22;3293;51.690;5.982;2023-03-03T05:21:17;1.70;99.90
6520;DHT22;3293;51.690;5.982;2023-03-03T05:26:17;1.60;99.90
6520;DHT22;3293;51.690;5.982;2023-03-03T05:31:17;1.70;99.90
6520;DHT22;3293;51.690;5.982;2023-03-03T05:36:17;1.70;99.90
6520;DHT22;3293;51.690;5.982;2023-03-03T05:41:17;1.80;99.90
6520;DHT22;3293;51.690;5.982;2023-03-03T05:46:17;1.80;99.90
6520;DHT22;3293;51.690;5.982;2023-03-03T05:51:17;1.80;99.90
6520;DHT22;3293;51.690;5.982;2023-03-03T05:56:17;1.80;99.90
6520;DHT22;3293;51.690;5.982;2023-03-03T06:01:17;1.80;99.90
6520;DHT22;3293;51.690;5.982;2023-03-03T06:06:18;1.90;99.90
6520;DHT22;3293;51.690;5.982;2023-03-03T06:11:18;1.90;99.90
6520;DHT22;3293;51.690;5.982;2023-03-03T06:16:18;1.90;99.90
6520;DHT22;3293;51.690;5.982;2023-03-03T06:21:18;1.90;99.90
6520;DHT22;3293;51.690;5.982;2023-03-03T06:26:18;1.90;99.90
6520;DHT22;3293;51.690;5.982;2023-03-03T06:31:18;2.00;99.90
6520;DHT22;3293;51.690;5.982;2023-03-03T06:36:19;2.00;99.90
6520;DHT22;3293;51.690;5.982;2023-03-03T06:41:19;2.00;99.90
6520;DHT22;3293;51.690;5.982;2023-03-03T06:46:19;2.10;99.90
6520;DHT22;3293;51.690;5.982;2023-03-03T06:51:23;2.10;99.90
6520;DHT22;3293;51.690;5.982;2023-03-03T06:56:27;2.10;99.90
6520;DHT22;3293;51.690;5.982;2023-03-03T07:01:35;2.20;99.90
6520;DHT22;3293;51.690;5.982;2023-03-03T07:06:36;2.30;99.90
6520;DHT22;3293;51.690;5.982;2023-03-03T07:11:36;2.30;99.90
6520;DHT22;3293;51.690;5.982;2023-03-03T07:16:39;2.30;99.90
6520;DHT22;3293;51.690;5.982;2023-03-03T07:21:40;2.30;99.90
6520;DHT22;3293;51.690;5.982;2023-03-03T07:26:40;2.50;99.90
6520;DHT22;3293;51.690;5.982;2023-03-03T07:31:41;2.50;99.90
6520;DHT22;3293;51.690;5.982;2023-03-03T07:36:41;2.50;99.90
6520;DHT22;3293;51.690;5.982;2023-03-03T07:41:41;2.60;99.90
6520;DHT22;3293;51.690;5.982;2023-03-03T07:46:44;2.60;99.90
6520;DHT22;3293;51.690;5.982;2023-03-03T07:51:47;2.70;99.90
6520;DHT22;3293;51.690;5.982;2023-03-03T07:56:47;2.80;99.90
6520;DHT22;3293;51.690;5.982;2023-03-03T08:01:54;2.90;99.90
6520;DHT22;3293;51.690;5.982;2023-03-03T08:07:01;2.90;99.90
6520;DHT22;3293;51.690;5.982;2023-03-03T08:17:32;3.00;99.90
6520;DHT22;3293;51.690;5.982;2023-03-03T08:22:35;3.10;99.90
6520;DHT22;3293;51.690;5.982;2023-03-03T08:27:35;3.10;99.90
6520;DHT22;3293;51.690;5.982;2023-03-03T08:32:35;3.20;99.90
6520;DHT22;3293;51.690;5.982;2023-03-03T08:37:35;3.40;99.90
6520;DHT22;3293;51.690;5.982;2023-03-03T08:42:35;3.50;99.90
6520;DHT22;3293;51.690;5.982;2023-03-03T08:47:36;3.40;99.90
6520;DHT22;3293;51.690;5.982;2023-03-03T08:52:37;3.50;99.90
6520;DHT22;3293;51.690;5.982;2023-03-03T08:57:37;3.70;99.90
6520;DHT22;3293;51.690;5.982;2023-03-03T09:02:38;3.80;99.90
6520;DHT22;3293;51.690;5.982;2023-03-03T09:07:39;3.80;99.90
6520;DHT22;3293;51.690;5.982;2023-03-03T09:12:41;4.10;99.90
6520;DHT22;3293;51.690;5.982;2023-03-03T09:17:42;4.30;99.90
6520;DHT22;3293;51.690;5.982;2023-03-03T09:22:44;4.30;99.90
6520;DHT22;3293;51.690;5.982;2023-03-03T09:27:44;4.20;99.90
6520;DHT22;3293;51.690;5.982;2023-03-03T09:32:44;4.30;99.90
6520;DHT22;3293;51.690;5.982;2023-03-03T09:37:46;4.40;99.90
6520;DHT22;3293;51.690;5.982;2023-03-03T09:43:01;4.70;99.90
6520;DHT22;3293;51.690;5.982;2023-03-03T09:48:16;4.90;99.90
6520;DHT22;3293;51.690;5.982;2023-03-03T09:53:52;5.10;99.90
6520;DHT22;3293;51.690;5.982;2023-03-03T10:04:35;5.20;99.90
6520;DHT22;3293;51.690;5.982;2023-03-03T10:09:52;5.10;99.90
6520;DHT22;3293;51.690;5.982;2023-03-03T10:25:45;5.40;99.90
6520;DHT22;3293;51.690;5.982;2023-03-03T10:42:37;6.00;99.90
6520;DHT22;3293;51.690;5.982;2023-03-03T10:48:02;6.20;99.90
6520;DHT22;3293;51.690;5.982;2023-03-03T10:53:30;6.10;99.90
6520;DHT22;3293;51.690;5.982;2023-03-03T11:20:25;6.60;99.90
6520;DHT22;3293;51.690;5.982;2023-03-03T11:26:08;6.70;99.90
6520;DHT22;3293;51.690;5.982;2023-03-03T11:31:17;6.80;99.90
6520;DHT22;3293;51.690;5.982;2023-03-03T11:36:34;6.60;99.90
6520;DHT22;3293;51.690;5.982;2023-03-03T11:41:38;6.30;99.90
6520;DHT22;3293;51.690;5.982;2023-03-03T12:02:49;6.60;99.90
6520;DHT22;3293;51.690;5.982;2023-03-03T12:07:54;6.60;99.90
6520;DHT22;3293;51.690;5.982;2023-03-03T12:28:45;6.60;99.90
6520;DHT22;3293;51.690;5.982;2023-03-03T12:33:54;6.80;99.90
6520;DHT22;3293;51.690;5.982;2023-03-03T12:49:05;6.70;99.90
6520;DHT22;3293;51.690;5.982;2023-03-03T13:15:46;6.60;99.90
6520;DHT22;3293;51.690;5.982;2023-03-03T13:21:21;6.60;99.90
6520;DHT22;3293;51.690;5.982;2023-03-03T13:31:42;6.70;99.90
6520;DHT22;3293;51.690;5.982;2023-03-03T13:37:04;6.90;99.90
6520;DHT22;3293;51.690;5.982;2023-03-03T13:42:21;7.00;99.90
6520;DHT22;3293;51.690;5.982;2023-03-03T13:47:44;7.10;99.90
6520;DHT22;3293;51.690;5.982;2023-03-03T14:10:41;7.40;99.90
6520;DHT22;3293;51.690;5.982;2023-03-03T14:15:45;7.40;99.90
6520;DHT22;3293;51.690;5.982;2023-03-03T14:20:51;7.40;99.90
6520;DHT22;3293;51.690;5.982;2023-03-03T14:26:08;7.50;99.90
6520;DHT22;3293;51.690;5.982;2023-03-03T14:31:29;7.60;99.90
6520;DHT22;3293;51.690;5.982;2023-03-03T14:36:35;7.70;99.90
6520;DHT22;3293;51.690;5.982;2023-03-03T14:41:40;7.70;99.90
6520;DHT22;3293;51.690;5.982;2023-03-03T14:46:42;7.70;99.90
6520;DHT22;3293;51.690;5.982;2023-03-03T14:51:47;7.70;99.90
6520;DHT22;3293;51.690;5.982;2023-03-03T14:56:56;7.70;99.90
6520;DHT22;3293;51.690;5.982;2023-03-03T15:02:41;7.70;99.90
6520;DHT22;3293;51.690;5.982;2023-03-03T15:23:07;7.60;99.90
6520;DHT22;3293;51.690;5.982;2023-03-03T15:44:43;7.50;99.90
6520;DHT22;3293;51.690;5.982;2023-03-03T15:50:10;7.50;99.90
6520;DHT22;3293;51.690;5.982;2023-03-03T16:00:54;7.60;99.90
6520;DHT22;3293;51.690;5.982;2023-03-03T16:06:02;7.70;99.90
6520;DHT22;3293;51.690;5.982;2023-03-03T16:11:08;7.80;99.90
6520;DHT22;3293;51.690;5.982;2023-03-03T16:16:57;7.80;99.90
6520;DHT22;3293;51.690;5.982;2023-03-03T16:37:26;7.90;99.90
6520;DHT22;3293;51.690;5.982;2023-03-03T16:42:29;7.80;99.90
6520;DHT22;3293;51.690;5.982;2023-03-03T16:52:55;7.70;99.90
6520;DHT22;3293;51.690;5.982;2023-03-03T16:58:07;7.60;99.90
6520;DHT22;3293;51.690;5.982;2023-03-03T17:03:24;7.50;99.90
6520;DHT22;3293;51.690;5.982;2023-03-03T17:30:44;7.20;99.90
6520;DHT22;3293;51.690;5.982;2023-03-03T17:46:21;6.90;99.90
6520;DHT22;3293;51.690;5.982;2023-03-03T17:51:34;6.90;99.90
6520;DHT22;3293;51.690;5.982;2023-03-03T17:56:46;6.80;99.90
6520;DHT22;3293;51.690;5.982;2023-03-03T18:07:40;6.70;99.90
6520;DHT22;3293;51.690;5.982;2023-03-03T18:23:43;6.60;99.90
6520;DHT22;3293;51.690;5.982;2023-03-03T18:28:46;6.50;99.90
6520;DHT22;3293;51.690;5.982;2023-03-03T18:34:07;6.40;99.90
6520;DHT22;3293;51.690;5.982;2023-03-03T18:39:12;6.30;99.90
6520;DHT22;3293;51.690;5.982;2023-03-03T18:44:29;6.20;99.90
6520;DHT22;3293;51.690;5.982;2023-03-03T18:49:50;6.20;99.90
6520;DHT22;3293;51.690;5.982;2023-03-03T19:00:26;6.00;99.90
6520;DHT22;3293;51.690;5.982;2023-03-03T19:05:35;6.00;99.90
6520;DHT22;3293;51.690;5.982;2023-03-03T19:10:52;5.90;99.90
6520;DHT22;3293;51.690;5.982;2023-03-03T19:15:54;5.90;99.90
6520;DHT22;3293;51.690;5.982;2023-03-03T19:21:17;5.90;99.90
6520;DHT22;3293;51.690;5.982;2023-03-03T19:31:52;5.80;99.90
6520;DHT22;3293;51.690;5.982;2023-03-03T19:42:47;5.80;99.90
6520;DHT22;3293;51.690;5.982;2023-03-03T20:15:04;5.70;99.90
6520;DHT22;3293;51.690;5.982;2023-03-03T20:25:51;5.70;99.90
6520;DHT22;3293;51.690;5.982;2023-03-03T20:31:12;5.70;99.90
6520;DHT22;3293;51.690;5.982;2023-03-03T21:03:18;5.70;99.90
6520;DHT22;3293;51.690;5.982;2023-03-03T21:08:39;5.70;99.90
6520;DHT22;3293;51.690;5.982;2023-03-03T21:13:45;5.70;99.90
6520;DHT22;3293;51.690;5.982;2023-03-03T21:19:11;5.70;99.90
6520;DHT22;3293;51.690;5.982;2023-03-03T21:24:12;5.70;99.90
6520;DHT22;3293;51.690;5.982;2023-03-03T21:34:24;5.70;99.90
6520;DHT22;3293;51.690;5.982;2023-03-03T21:39:37;5.70;99.90
6520;DHT22;3293;51.690;5.982;2023-03-03T21:44:47;5.70;99.90
6520;DHT22;3293;51.690;5.982;2023-03-03T21:49:50;5.70;99.90
6520;DHT22;3293;51.690;5.982;2023-03-03T21:54:51;5.70;99.90
6520;DHT22;3293;51.690;5.982;2023-03-03T21:59:52;5.70;99.90
6520;DHT22;3293;51.690;5.982;2023-03-03T22:04:52;5.80;99.90
6520;DHT22;3293;51.690;5.982;2023-03-03T22:09:52;5.70;99.90
6520;DHT22;3293;51.690;5.982;2023-03-03T22:14:52;5.80;99.90
6520;DHT22;3293;51.690;5.982;2023-03-03T22:19:52;5.80;99.90
6520;DHT22;3293;51.690;5.982;2023-03-03T22:24:54;5.80;99.90
6520;DHT22;3293;51.690;5.982;2023-03-03T22:29:54;5.80;99.90
6520;DHT22;3293;51.690;5.982;2023-03-03T22:34:54;5.80;99.90
6520;DHT22;3293;51.690;5.982;2023-03-03T22:39:54;5.90;99.90
6520;DHT22;3293;51.690;5.982;2023-03-03T22:44:54;5.80;99.90
6520;DHT22;3293;51.690;5.982;2023-03-03T22:49:55;5.90;99.90
6520;DHT22;3293;51.690;5.982;2023-03-03T22:54:55;5.90;99.90
6520;DHT22;3293;51.690;5.982;2023-03-03T22:59:57;5.90;99.90
6520;DHT22;3293;51.690;5.982;2023-03-03T23:04:58;5.90;99.90
6520;DHT22;3293;51.690;5.982;2023-03-03T23:10:00;5.90;99.90
6520;DHT22;3293;51.690;5.982;2023-03-03T23:15:00;5.80;99.90
6520;DHT22;3293;51.690;5.982;2023-03-03T23:20:00;5.90;99.90
6520;DHT22;3293;51.690;5.982;2023-03-03T23:25:00;5.80;99.90
6520;DHT22;3293;51.690;5.982;2023-03-03T23:30:01;5.80;99.90
6520;DHT22;3293;51.690;5.982;2023-03-03T23:35:02;5.90;99.90
6520;DHT22;3293;51.690;5.982;2023-03-03T23:40:05;5.90;99.90
6520;DHT22;3293;51.690;5.982;2023-03-03T23:45:07;5.90;99.90
6520;DHT22;3293;51.690;5.982;2023-03-03T23:50:10;5.90;99.90
6520;DHT22;3293;51.690;5.982;2023-03-03T23:55:10;5.90;99.90
